Aérodrome :
LOGIN :

S'inscrire | Disclaimer

   EN    FR    IT 

 










Légende :    VFR   VFR Marginal   IFR   IFR Intensif   IFR Très Intensif
Visi : 
Plafond : 
>= 8 km
>= 3000ft
5 à 8 km
1000 à 3000 ft
1500m à 5 km
500 à 1000 ft
800 à 1500m
200 à 500 ft
< 800m
< 200 ft
Symboles :   Orages  Brouillard  Fortes neiges  Fortes précipitations  Vent > 20 kt
SIGMETs :   Divers  Orages  Givrage  Turbulence  Onde Orograph.  Cendres Volcan.






- Altitude de l'aérodrome : 699 ft
- Code IATA : PAD


EDLP - Paderborn Lippstadt

DERNIER METAR :
  • 242150Z 24016KT 9999 -RA OVC014 10/07 Q1003

METARs EXPIRÉS :
  • 242120Z 24016KT 210V270 8000 -RA BKN011 BKN015 OVC018 09/08 Q1003
  • 242050Z 25015KT 220V280 6000 -RA OVC012 10/08 Q1003
  • 242020Z 24019KT 9000 -RA BKN016 OVC025 10/07 Q1003
  • 241950Z 23018KT 9999 -RA SCT018 BKN037 09/07 Q1003
  • 241920Z 24019KT 9999 -RA SCT018 BKN023 OVC038 09/07 Q1003

TAF TAF EDLP
Valide du 24 à 18h jusqu'au 25 à 18h UTC


241700Z 2418/2518 23015G25KT 9999 FEW015 BKN025
TEMPO 2418/2421 24020G35KT RA BKN014
TEMPO 2421/2502 24020G30KT BKN012
PROB30
TEMPO 2502/2505 BKN012
TEMPO 2509/2514 25020G35KT
BECMG 2515/2517 23012KT
TEMPO 2517/2518 SHRA BKN020CB



MET'MAP, la Météo Aéronautique d'un coup d'oeil ! - Copyright ORBIFLY Décembre 2007 - Disclaimer

ORBIFLY MET'MAP TEAM :

Programmation & Développement : Alexandra Zaïnal
Sur une idée originale de : Baudouin d'Aumeries
Assistance à la programmation : Marc-Olivier Méhu
Soutien technique & logistique : Manuel Goepfert

Contact : metmap@orbifly.com




SOURCES & CREDITS :

   NOAA